Phoenix, Arizona
Current Conditions -  °F | °C
As of 6:51 PM on Friday 28 Nov 2014 (Local Time) from KPHX Reporting Station
Clear Clear  
Wind Chill: 71°   Ceiling: Unl
Heat Index: 71°   Visibility: 10mi
Dew Point: 29°   Wind: 0mph
Humidity: 21%   Direction: NA
Pressure: 29.89"   Gusts: NA
Location:  33.45°N, 112.08°W
Report Text: KPHX 290151Z 00000KT 10SM CLR 22/M02 A2989 RMK AO2 SLP112 T02171017
Loading
Personal Weather Stations






























Interactive Weather Map New forecast layout! Learn more

10-Day Weather Forecast

Advertisements
Track Severe Weather on mobile